createdAt,value
2023-02-02T00:01:47.588Z,97127.83
2023-02-02T00:04:24.983Z,97127.33
2023-02-02T00:06:53.971Z,97124.71
2023-02-02T00:09:22.024Z,97124.15
2023-02-02T00:11:51.204Z,97120.69
2023-02-02T00:14:19.610Z,97117.85
2023-02-02T00:16:57.974Z,97114.30
2023-02-02T00:19:30.523Z,97111.58
2023-02-02T00:21:58.773Z,97113.10
2023-02-02T00:24:27.046Z,97116.52
2023-02-02T00:26:58.412Z,97115.34
2023-02-02T00:29:29.396Z,97116.08
2023-02-02T00:31:58.324Z,97114.79
2023-02-02T00:34:26.297Z,97113.43
2023-02-02T00:36:54.590Z,97110.45
2023-02-02T00:39:26.369Z,97110.32
2023-02-02T00:41:54.932Z,97106.25
2023-02-02T00:45:01.487Z,97103.88
2023-02-02T00:47:29.544Z,97099.58
2023-02-02T00:49:57.717Z,97100.50
2023-02-02T00:52:25.756Z,97099.09
2023-02-02T00:54:53.854Z,97099.06
2023-02-02T00:57:21.935Z,97100.58
2023-02-02T00:59:49.978Z,97099.89
2023-02-02T01:02:18.149Z,97099.92
2023-02-02T01:04:46.759Z,97098.55
2023-02-02T01:07:14.936Z,97095.80
2023-02-02T01:09:43.106Z,97088.80
2023-02-02T01:12:11.182Z,97084.07
2023-02-02T01:14:39.352Z,97086.04
2023-02-02T01:17:07.544Z,97085.65
2023-02-02T01:19:36.001Z,97079.02
2023-02-02T01:22:04.166Z,97076.71
2023-02-02T01:24:32.545Z,97074.92
2023-02-02T01:27:01.302Z,97072.40
2023-02-02T01:29:29.507Z,97064.23
2023-02-02T01:31:58.014Z,97058.34
2023-02-02T01:34:26.378Z,97054.13
2023-02-02T01:36:54.536Z,97054.64
2023-02-02T01:39:23.225Z,97051.71
2023-02-02T01:41:51.504Z,97052.13
2023-02-02T01:44:51.424Z,97052.69
2023-02-02T01:47:27.272Z,97053.17
2023-02-02T01:49:56.262Z,97053.81
2023-02-02T01:52:27.816Z,97056.91
2023-02-02T01:55:08.677Z,97057.30
2023-02-02T01:58:12.805Z,97056.34
2023-02-02T02:00:45.057Z,97058.64
2023-02-02T02:03:17.985Z,97059.93
2023-02-02T02:06:14.912Z,97058.35
2023-02-02T02:08:57.323Z,97058.63
2023-02-02T02:11:25.958Z,97054.96
2023-02-02T02:14:15.538Z,97052.20
2023-02-02T02:17:18.038Z,97049.70
2023-02-02T02:20:38.546Z,97046.05
2023-02-02T02:23:28.325Z,97045.08
2023-02-02T02:26:33.826Z,97050.45
2023-02-02T02:29:45.160Z,97049.25
2023-02-02T02:32:29.710Z,97056.04
2023-02-02T02:35:31.374Z,97052.63
2023-02-02T02:38:24.549Z,97051.06
2023-02-02T02:41:01.310Z,97050.13
2023-02-02T02:43:36.550Z,97051.70
2023-02-02T02:46:05.588Z,97050.39
2023-02-02T02:48:33.627Z,97045.45
2023-02-02T02:51:26.566Z,97043.17
2023-02-02T02:53:55.552Z,97041.10
2023-02-02T02:56:38.369Z,97037.14
2023-02-02T02:59:26.511Z,97029.65
2023-02-02T03:02:26.543Z,97024.64
2023-02-02T03:05:25.014Z,97018.02
2023-02-02T03:08:08.346Z,97014.46
2023-02-02T03:10:40.633Z,97013.38
2023-02-02T03:13:10.853Z,97009.92
2023-02-02T03:15:43.807Z,97006.54
2023-02-02T03:18:13.987Z,97004.20
2023-02-02T03:20:43.957Z,97002.30
2023-02-02T03:23:13.561Z,97000.40
2023-02-02T03:25:41.822Z,96995.70
2023-02-02T03:28:09.795Z,96998.29
2023-02-02T03:30:40.456Z,96993.77
2023-02-02T03:33:10.422Z,96993.52
2023-02-02T03:35:38.614Z,96992.30
2023-02-02T03:38:06.694Z,96993.12
2023-02-02T03:40:35.492Z,96998.70
2023-02-02T03:43:03.556Z,96997.73
2023-02-02T03:45:32.451Z,96993.09
2023-02-02T03:48:00.613Z,96992.20
2023-02-02T03:50:28.528Z,96988.58
2023-02-02T03:52:56.655Z,96980.46
2023-02-02T03:55:24.994Z,96978.81
2023-02-02T03:57:53.740Z,96984.08
2023-02-02T04:00:22.176Z,96985.52
2023-02-02T04:02:50.189Z,96984.56
2023-02-02T04:05:18.225Z,96987.22
2023-02-02T04:07:46.410Z,96989.13
2023-02-02T04:10:14.780Z,96988.46
2023-02-02T04:12:42.823Z,96987.11
2023-02-02T04:15:11.541Z,96986.48
2023-02-02T04:17:39.817Z,96988.91
2023-02-02T04:20:08.845Z,96985.90
2023-02-02T04:22:36.870Z,96986.69
2023-02-02T04:25:05.573Z,96981.16
2023-02-02T04:27:34.367Z,96969.49
2023-02-02T04:30:02.535Z,96958.40
2023-02-02T04:32:30.689Z,96959.56
2023-02-02T04:34:58.629Z,96954.48
2023-02-02T04:37:26.939Z,96955.55
2023-02-02T04:39:55.568Z,96957.88
2023-02-02T04:42:23.800Z,96955.59
2023-02-02T04:44:51.882Z,96953.34
2023-02-02T04:47:20.052Z,96951.59
2023-02-02T04:49:48.005Z,96953.12
2023-02-02T04:52:16.699Z,96955.90
2023-02-02T04:54:44.967Z,96958.64
2023-02-02T04:57:12.990Z,96964.05
2023-02-02T04:59:42.470Z,96964.17
2023-02-02T05:02:10.710Z,96962.38
2023-02-02T05:04:38.717Z,96969.04
2023-02-02T05:07:07.109Z,96980.46
2023-02-02T05:09:35.341Z,96979.81
2023-02-02T05:12:04.035Z,96977.27
2023-02-02T05:14:32.196Z,96979.16
2023-02-02T05:17:00.583Z,96978.34
2023-02-02T05:19:28.640Z,96974.83
2023-02-02T05:21:56.709Z,96972.50
2023-02-02T05:24:24.892Z,96951.38
2023-02-02T05:26:58.762Z,96951.50
2023-02-02T05:29:30.912Z,96941.83
2023-02-02T05:31:59.282Z,96928.16
2023-02-02T05:34:27.424Z,96924.20
2023-02-02T05:36:55.699Z,96945.48
2023-02-02T05:39:23.718Z,96950.21
2023-02-02T05:41:52.141Z,96949.73
2023-02-02T05:44:20.314Z,96947.06
2023-02-02T05:46:48.319Z,96950.45
2023-02-02T05:49:16.258Z,96955.92
2023-02-02T05:51:50.397Z,96950.61
2023-02-02T05:54:20.756Z,96948.73
2023-02-02T05:56:51.924Z,96942.13
2023-02-02T05:59:20.771Z,96946.68
2023-02-02T06:01:49.312Z,96947.21
2023-02-02T06:04:17.544Z,96946.56
2023-02-02T06:06:48.076Z,96947.00
2023-02-02T06:09:16.167Z,96953.44
2023-02-02T06:11:45.373Z,96959.48
2023-02-02T06:14:13.548Z,96959.02
2023-02-02T06:16:41.529Z,96959.86
2023-02-02T06:19:09.584Z,96951.39
2023-02-02T06:21:37.656Z,96946.66
2023-02-02T06:24:06.336Z,96940.06
2023-02-02T06:26:34.347Z,96939.85
2023-02-02T06:29:03.092Z,96946.58
2023-02-02T06:31:31.548Z,96949.13
2023-02-02T06:34:00.457Z,96947.99
2023-02-02T06:36:28.693Z,96946.80
2023-02-02T06:38:58.343Z,96955.66
2023-02-02T06:41:26.516Z,96956.39
2023-02-02T06:43:54.892Z,96959.55
2023-02-02T06:46:23.051Z,96959.71
2023-02-02T06:48:51.336Z,96959.38
2023-02-02T06:51:20.029Z,96972.02
2023-02-02T06:53:51.891Z,96978.55
2023-02-02T06:56:20.092Z,96982.95
2023-02-02T06:58:48.439Z,96985.44
2023-02-02T07:01:16.669Z,96983.11
2023-02-02T07:03:49.656Z,96986.66
2023-02-02T07:06:20.743Z,96989.01
2023-02-02T07:08:53.125Z,96993.24
2023-02-02T07:11:35.554Z,96997.13
2023-02-02T07:14:07.384Z,97003.09
2023-02-02T07:16:35.864Z,97004.84
2023-02-02T07:19:04.431Z,97007.42
2023-02-02T07:21:36.318Z,97006.63
2023-02-02T07:24:06.233Z,97006.13
2023-02-02T07:26:36.321Z,97012.35
2023-02-02T07:29:07.848Z,97014.75
2023-02-02T07:31:36.997Z,97012.25
2023-02-02T07:34:06.785Z,97009.22
2023-02-02T07:36:35.988Z,97009.34
2023-02-02T07:39:05.424Z,97007.33
2023-02-02T07:41:37.250Z,97006.40
2023-02-02T07:44:06.176Z,97003.79
2023-02-02T07:46:34.249Z,97001.27
2023-02-02T07:49:04.501Z,96999.87
2023-02-02T07:51:32.593Z,97001.07
2023-02-02T07:54:01.380Z,97002.57
2023-02-02T07:56:29.656Z,97001.80
2023-02-02T07:58:58.531Z,96997.25
2023-02-02T08:01:28.624Z,96997.21
2023-02-02T08:04:00.639Z,96995.36
2023-02-02T08:06:34.864Z,96994.42
2023-02-02T08:09:07.734Z,96996.69
2023-02-02T08:11:37.668Z,97000.21
2023-02-02T08:14:15.217Z,97000.63
2023-02-02T08:16:43.291Z,97001.39
2023-02-02T08:19:11.795Z,97000.17
2023-02-02T08:21:39.961Z,96992.95
2023-02-02T08:24:08.438Z,96992.23
2023-02-02T08:26:36.661Z,96996.02
2023-02-02T08:29:08.313Z,96997.63
2023-02-02T08:31:43.071Z,97002.71
2023-02-02T08:34:14.113Z,97002.19
2023-02-02T08:36:42.314Z,97009.84
2023-02-02T08:39:12.742Z,97013.98
2023-02-02T08:41:40.904Z,97015.42
2023-02-02T08:44:11.825Z,97020.86
2023-02-02T08:46:40.852Z,97018.98
2023-02-02T08:49:12.927Z,97021.14
2023-02-02T08:51:42.277Z,97024.79
2023-02-02T08:54:10.251Z,97029.02
2023-02-02T08:56:40.603Z,97032.67
2023-02-02T08:59:08.954Z,97034.42
2023-02-02T09:01:38.218Z,97030.85
2023-02-02T09:04:08.987Z,97034.73
2023-02-02T09:06:39.705Z,97037.17
2023-02-02T09:09:10.572Z,97037.95
2023-02-02T09:11:39.329Z,97042.11
2023-02-02T09:14:08.215Z,97044.95
2023-02-02T09:16:36.792Z,97043.14
2023-02-02T09:19:05.947Z,97038.80
2023-02-02T09:21:37.230Z,97040.74
2023-02-02T09:24:11.760Z,97043.62
2023-02-02T09:26:40.815Z,97041.16
2023-02-02T09:29:13.532Z,97043.98
2023-02-02T09:31:42.484Z,97044.15
2023-02-02T09:34:12.793Z,97045.33
2023-02-02T09:36:42.188Z,97044.45
2023-02-02T09:39:13.081Z,97050.89
2023-02-02T09:41:41.308Z,97046.16
2023-02-02T09:44:37.437Z,97049.98
2023-02-02T09:47:18.158Z,97049.84
2023-02-02T09:50:02.535Z,97052.02
2023-02-02T09:52:45.676Z,97048.20
2023-02-02T09:55:23.355Z,97049.42
2023-02-02T09:58:01.920Z,97047.76
2023-02-02T10:00:33.798Z,97045.23
2023-02-02T10:03:07.436Z,97043.64
2023-02-02T10:06:03.679Z,97046.41
2023-02-02T10:08:41.168Z,97048.20
2023-02-02T10:11:33.507Z,97052.87
2023-02-02T10:14:15.260Z,97052.20
2023-02-02T10:16:43.566Z,97060.80
2023-02-02T10:19:14.533Z,97066.09
2023-02-02T10:21:51.388Z,97069.34
2023-02-02T10:24:23.019Z,97073.20
2023-02-02T10:26:55.766Z,97075.89
2023-02-02T10:29:23.783Z,97079.79
2023-02-02T10:31:58.035Z,97077.55
2023-02-02T10:34:32.314Z,97077.91
2023-02-02T10:37:35.098Z,97074.58
2023-02-02T10:40:32.673Z,97075.16
2023-02-02T10:43:47.031Z,97074.80
2023-02-02T10:46:35.561Z,97071.95
2023-02-02T10:49:22.490Z,97072.16
2023-02-02T10:51:58.141Z,97072.27
2023-02-02T10:54:54.890Z,97073.70
2023-02-02T10:57:36.464Z,97080.65
2023-02-02T11:00:23.066Z,97085.38
2023-02-02T11:02:53.249Z,97082.15
2023-02-02T11:05:42.676Z,97081.39
2023-02-02T11:08:18.675Z,97078.20
2023-02-02T11:10:52.728Z,97074.64
2023-02-02T11:13:35.860Z,97074.34
2023-02-02T11:16:16.181Z,97069.83
2023-02-02T11:18:45.148Z,97073.79
2023-02-02T11:21:19.699Z,97071.45
2023-02-02T11:23:53.396Z,97068.21
2023-02-02T11:26:24.603Z,97061.30
2023-02-02T11:28:58.343Z,97062.05
2023-02-02T11:31:32.497Z,97056.98
2023-02-02T11:34:20.562Z,97054.63
2023-02-02T11:36:59.725Z,97053.66
2023-02-02T11:39:28.236Z,97057.27
2023-02-02T11:42:14.979Z,97060.23
2023-02-02T11:44:48.209Z,97060.35
2023-02-02T11:47:32.716Z,97063.39
2023-02-02T11:50:04.363Z,97063.57
2023-02-02T11:52:34.162Z,97062.76
2023-02-02T11:55:09.807Z,97065.83
2023-02-02T11:57:38.080Z,97061.63
2023-02-02T12:00:08.754Z,97065.67
2023-02-02T12:02:37.005Z,97070.38
2023-02-02T12:05:10.942Z,97062.96
2023-02-02T12:07:39.909Z,97066.70
2023-02-02T12:10:28.964Z,97066.43
2023-02-02T12:13:06.664Z,97063.88
2023-02-02T12:15:52.981Z,97059.52
2023-02-02T12:18:23.847Z,97052.45
2023-02-02T12:21:14.584Z,97052.64
2023-02-02T12:23:52.273Z,97052.00
2023-02-02T12:26:30.955Z,97055.00
2023-02-02T12:29:22.258Z,97056.77
2023-02-02T12:32:09.121Z,97057.99
2023-02-02T12:34:54.800Z,97058.20
2023-02-02T12:37:37.994Z,97062.47
2023-02-02T12:40:18.290Z,97066.44
2023-02-02T12:43:11.763Z,97065.14
2023-02-02T12:46:11.777Z,97065.38
2023-02-02T12:48:46.093Z,97063.55
2023-02-02T12:51:38.048Z,97064.68
2023-02-02T12:54:34.811Z,97069.39
2023-02-02T12:57:12.365Z,97063.90
2023-02-02T12:59:59.374Z,97070.31
2023-02-02T13:02:39.431Z,97071.55
2023-02-02T13:05:23.861Z,97070.59
2023-02-02T13:07:58.609Z,97070.16
2023-02-02T13:10:29.750Z,97069.21
2023-02-02T13:13:09.082Z,97070.20
2023-02-02T13:15:41.483Z,97074.36
2023-02-02T13:18:21.716Z,97071.75
2023-02-02T13:20:58.684Z,97077.77
2023-02-02T13:23:35.593Z,97084.00
2023-02-02T13:26:10.082Z,97088.90
2023-02-02T13:28:43.694Z,97093.19
2023-02-02T13:31:18.113Z,97094.05
2023-02-02T13:33:55.290Z,97098.52
2023-02-02T13:36:29.912Z,97105.29
2023-02-02T13:39:02.087Z,97107.09
2023-02-02T13:41:31.706Z,97112.02
2023-02-02T13:44:15.255Z,97119.86
2023-02-02T13:46:48.305Z,97122.41
2023-02-02T13:49:35.836Z,97122.48
2023-02-02T13:52:20.907Z,97121.58
2023-02-02T13:55:20.115Z,97122.80
2023-02-02T13:57:53.229Z,97127.61
2023-02-02T14:00:25.425Z,97133.44
2023-02-02T14:03:06.455Z,97135.54
2023-02-02T14:05:38.392Z,97140.26
2023-02-02T14:08:08.614Z,97141.03
2023-02-02T14:10:38.041Z,97146.42
2023-02-02T14:14:00.487Z,97145.73
2023-02-02T14:16:31.472Z,97148.02
2023-02-02T14:19:01.469Z,97148.48
2023-02-02T14:21:32.774Z,97150.46
2023-02-02T14:24:21.114Z,97155.89
2023-02-02T14:26:57.902Z,97156.13
2023-02-02T14:29:30.354Z,97159.69
2023-02-02T14:32:29.496Z,97156.08
2023-02-02T14:35:08.281Z,97152.49
2023-02-02T14:37:47.530Z,97150.38
2023-02-02T14:40:15.487Z,97147.02
2023-02-02T14:43:23.698Z,97151.71
2023-02-02T14:46:13.881Z,97157.19
2023-02-02T14:49:07.649Z,97152.82
2023-02-02T14:51:47.417Z,97151.48
2023-02-02T14:54:24.473Z,97149.95
2023-02-02T14:56:59.272Z,97150.48
2023-02-02T14:59:38.139Z,97149.55
2023-02-02T15:02:29.934Z,97154.53
2023-02-02T15:05:29.281Z,97155.81
2023-02-02T15:08:13.934Z,97157.82
2023-02-02T15:10:50.389Z,97160.38
2023-02-02T15:13:21.438Z,97158.89
2023-02-02T15:15:53.919Z,97160.45
2023-02-02T15:18:41.020Z,97159.69
2023-02-02T15:21:14.417Z,97161.72
2023-02-02T15:23:45.575Z,97163.66
2023-02-02T15:26:27.622Z,97166.67
2023-02-02T15:29:01.837Z,97168.99
2023-02-02T15:31:46.381Z,97168.11
2023-02-02T15:34:40.927Z,97171.11
2023-02-02T15:37:15.598Z,97173.95
2023-02-02T15:39:49.220Z,97177.70
2023-02-02T15:42:53.170Z,97183.33
2023-02-02T15:45:46.345Z,97181.14
2023-02-02T15:48:22.471Z,97181.17
2023-02-02T15:50:55.973Z,97183.58
2023-02-02T15:53:34.295Z,97184.95
2023-02-02T15:56:23.453Z,97186.78
2023-02-02T15:58:57.037Z,97189.63
2023-02-02T16:01:26.766Z,97190.22
2023-02-02T16:04:19.901Z,97192.16
2023-02-02T16:06:49.323Z,97193.21
2023-02-02T16:09:32.946Z,97195.52
2023-02-02T16:12:04.228Z,97201.66
2023-02-02T16:14:38.199Z,97209.34
2023-02-02T16:17:27.479Z,97217.08
2023-02-02T16:20:12.945Z,97220.19
2023-02-02T16:22:42.265Z,97226.64
2023-02-02T16:25:16.062Z,97230.86
2023-02-02T16:27:47.884Z,97232.70
2023-02-02T16:30:25.210Z,97235.54
2023-02-02T16:32:53.336Z,97240.76
2023-02-02T16:35:41.008Z,97244.16
2023-02-02T16:38:22.560Z,97243.62
2023-02-02T16:41:21.401Z,97246.97
2023-02-02T16:43:49.456Z,97242.73
2023-02-02T16:46:47.857Z,97245.16
2023-02-02T16:49:23.283Z,97244.38
2023-02-02T16:52:10.243Z,97247.44
2023-02-02T16:54:43.490Z,97251.94
2023-02-02T16:57:24.229Z,97253.92
2023-02-02T16:59:55.757Z,97254.83
2023-02-02T17:02:32.101Z,97254.19
2023-02-02T17:05:19.107Z,97254.90
2023-02-02T17:07:54.222Z,97255.23
2023-02-02T17:10:24.730Z,97253.84
2023-02-02T17:12:53.336Z,97258.16
2023-02-02T17:15:29.144Z,97258.58
2023-02-02T17:17:58.102Z,97264.08
2023-02-02T17:20:27.673Z,97267.88
2023-02-02T17:23:06.975Z,97268.23
2023-02-02T17:25:43.188Z,97267.38
2023-02-02T17:28:14.699Z,97272.85
2023-02-02T17:30:44.812Z,97275.11
2023-02-02T17:33:18.548Z,97276.04
2023-02-02T17:35:55.019Z,97284.05
2023-02-02T17:38:25.412Z,97282.86
2023-02-02T17:40:55.396Z,97284.36
2023-02-02T17:43:23.512Z,97283.85
2023-02-02T17:45:52.136Z,97285.69
2023-02-02T17:48:21.101Z,97280.77
2023-02-02T17:50:49.587Z,97282.44
2023-02-02T17:53:21.217Z,97283.33
2023-02-02T17:55:51.630Z,97286.91
2023-02-02T17:58:19.942Z,97287.95
2023-02-02T18:00:54.064Z,97287.55
2023-02-02T18:03:34.289Z,97288.97
2023-02-02T18:06:03.188Z,97289.77
2023-02-02T18:08:32.715Z,97287.06
2023-02-02T18:11:01.082Z,97290.59
2023-02-02T18:13:29.093Z,97291.75
2023-02-02T18:15:57.392Z,97289.67
2023-02-02T18:18:27.501Z,97288.45
2023-02-02T18:20:55.699Z,97292.38
2023-02-02T18:23:24.713Z,97295.42
2023-02-02T18:25:53.182Z,97296.93
2023-02-02T18:28:21.589Z,97294.76
2023-02-02T18:30:49.949Z,97297.14
2023-02-02T18:33:20.048Z,97299.99
2023-02-02T18:35:48.636Z,97302.59
2023-02-02T18:38:18.180Z,97306.16
2023-02-02T18:40:55.334Z,97305.31
2023-02-02T18:43:23.517Z,97307.91
2023-02-02T18:46:08.950Z,97304.98
2023-02-02T18:48:37.376Z,97306.86
2023-02-02T18:51:07.442Z,97309.79
2023-02-02T18:53:36.064Z,97315.04
2023-02-02T18:56:05.987Z,97316.65
2023-02-02T18:58:35.176Z,97319.16
2023-02-02T19:01:17.238Z,97320.65
2023-02-02T19:03:50.730Z,97326.29
2023-02-02T19:06:38.198Z,97326.15
2023-02-02T19:09:06.781Z,97323.74
2023-02-02T19:11:45.196Z,97325.02
2023-02-02T19:14:13.367Z,97331.59
2023-02-02T19:16:42.560Z,97333.13
2023-02-02T19:19:24.448Z,97334.89
2023-02-02T19:21:58.369Z,97335.30
2023-02-02T19:24:34.418Z,97336.66
2023-02-02T19:27:02.960Z,97336.91
2023-02-02T19:29:35.990Z,97341.67
2023-02-02T19:32:18.272Z,97342.20
2023-02-02T19:34:47.177Z,97344.67
2023-02-02T19:37:18.124Z,97348.17
2023-02-02T19:39:47.357Z,97351.55
2023-02-02T19:42:15.512Z,97357.56
2023-02-02T19:44:43.566Z,97358.72
2023-02-02T19:47:21.482Z,97359.34
2023-02-02T19:49:49.645Z,97357.02
2023-02-02T19:52:24.657Z,97356.61
2023-02-02T19:54:53.955Z,97360.71
2023-02-02T19:57:38.737Z,97363.51
2023-02-02T20:00:24.575Z,97361.73
2023-02-02T20:02:56.490Z,97365.98
2023-02-02T20:05:32.945Z,97364.83
2023-02-02T20:08:19.462Z,97371.55
2023-02-02T20:10:47.620Z,97373.16
2023-02-02T20:13:20.403Z,97378.23
2023-02-02T20:15:50.839Z,97377.48
2023-02-02T20:18:48.713Z,97380.02
2023-02-02T20:21:42.368Z,97381.86
2023-02-02T20:24:37.285Z,97389.63
2023-02-02T20:27:16.903Z,97394.08
2023-02-02T20:29:48.074Z,97396.95
2023-02-02T20:32:26.800Z,97401.52
2023-02-02T20:34:57.616Z,97410.17
2023-02-02T20:37:29.310Z,97415.02
2023-02-02T20:40:02.099Z,97422.19
2023-02-02T20:42:30.628Z,97424.88
2023-02-02T20:44:58.996Z,97425.42
2023-02-02T20:47:27.146Z,97422.01
2023-02-02T20:49:57.403Z,97429.16
2023-02-02T20:52:26.596Z,97428.77
2023-02-02T20:54:54.821Z,97432.67
2023-02-02T20:57:23.443Z,97437.13
2023-02-02T20:59:57.665Z,97441.48
2023-02-02T21:02:26.947Z,97446.02
2023-02-02T21:04:55.241Z,97450.23
2023-02-02T21:07:23.510Z,97451.65
2023-02-02T21:09:51.681Z,97455.40
2023-02-02T21:12:24.449Z,97457.98
2023-02-02T21:14:55.854Z,97454.35
2023-02-02T21:17:24.150Z,97453.44
2023-02-02T21:19:52.780Z,97453.84
2023-02-02T21:22:20.794Z,97456.84
2023-02-02T21:24:48.814Z,97451.98
2023-02-02T21:27:17.051Z,97458.54
2023-02-02T21:29:45.050Z,97457.07
2023-02-02T21:32:13.098Z,97460.15
2023-02-02T21:34:41.710Z,97464.16
2023-02-02T21:37:15.622Z,97465.70
2023-02-02T21:39:52.116Z,97468.02
2023-02-02T21:42:22.513Z,97474.65
2023-02-02T21:45:03.277Z,97484.12
2023-02-02T21:47:36.173Z,97492.64
2023-02-02T21:50:19.872Z,97498.91
2023-02-02T21:52:47.978Z,97505.39
2023-02-02T21:55:37.363Z,97515.53
2023-02-02T21:58:20.992Z,97523.70
2023-02-02T22:00:50.398Z,97518.55
2023-02-02T22:03:27.258Z,97519.33
2023-02-02T22:06:21.484Z,97522.36
2023-02-02T22:08:51.565Z,97527.73
2023-02-02T22:11:29.655Z,97528.45
2023-02-02T22:14:21.517Z,97522.30
2023-02-02T22:16:53.257Z,97524.13
2023-02-02T22:19:32.609Z,97526.64
2023-02-02T22:22:09.764Z,97522.36
2023-02-02T22:24:37.934Z,97520.78
2023-02-02T22:27:19.613Z,97526.05
2023-02-02T22:29:47.767Z,97527.39
2023-02-02T22:32:16.089Z,97529.51
2023-02-02T22:34:44.356Z,97531.70
2023-02-02T22:37:12.530Z,97535.89
2023-02-02T22:39:42.944Z,97535.12
2023-02-02T22:42:10.997Z,97532.64
2023-02-02T22:44:39.028Z,97531.43
2023-02-02T22:47:07.168Z,97531.35
2023-02-02T22:49:35.207Z,97537.98
2023-02-02T22:52:03.457Z,97541.84
2023-02-02T22:54:31.444Z,97541.23
2023-02-02T22:56:59.548Z,97542.42
2023-02-02T22:59:27.828Z,97544.44
2023-02-02T23:01:55.893Z,97543.85
2023-02-02T23:04:24.061Z,97545.31
2023-02-02T23:06:52.295Z,97546.96
2023-02-02T23:09:20.447Z,97552.25
2023-02-02T23:11:49.488Z,97557.19
2023-02-02T23:14:17.786Z,97561.36
2023-02-02T23:16:46.073Z,97567.64
2023-02-02T23:19:14.544Z,97570.82
2023-02-02T23:21:42.511Z,97578.34
2023-02-02T23:24:10.584Z,97589.20
2023-02-02T23:26:38.649Z,97594.42
2023-02-02T23:29:06.823Z,97602.03
2023-02-02T23:31:34.991Z,97604.79
2023-02-02T23:34:03.407Z,97604.16
2023-02-02T23:36:31.334Z,97604.51
2023-02-02T23:38:59.721Z,97606.55
2023-02-02T23:41:28.077Z,97605.27
2023-02-02T23:43:56.168Z,97603.19
2023-02-02T23:46:24.799Z,97608.75
2023-02-02T23:48:54.082Z,97609.36
2023-02-02T23:51:22.334Z,97610.91
2023-02-02T23:53:50.500Z,97614.64
2023-02-02T23:56:18.671Z,97622.39
2023-02-02T23:58:46.723Z,97627.85
